createdAt,value
2018-04-19T00:00:24.867Z,0.00
2018-04-19T00:02:20.989Z,0.00
2018-04-19T00:03:20.866Z,0.00
2018-04-19T00:05:17.020Z,0.00
2018-04-19T00:06:16.872Z,0.00
2018-04-19T00:08:13.044Z,0.00
2018-04-19T00:09:12.849Z,0.00
2018-04-19T00:11:08.092Z,0.00
2018-04-19T00:12:07.883Z,0.00
2018-04-19T00:14:03.973Z,0.00
2018-04-19T00:15:03.904Z,0.00
2018-04-19T00:17:00.026Z,0.00
2018-04-19T00:17:59.889Z,0.00
2018-04-19T00:19:55.988Z,0.00
2018-04-19T00:20:55.826Z,0.00
2018-04-19T00:22:51.985Z,0.00
2018-04-19T00:23:51.823Z,0.00
2018-04-19T00:25:47.993Z,0.00
2018-04-19T00:26:47.896Z,0.00
2018-04-19T00:28:43.989Z,0.00
2018-04-19T00:29:43.849Z,0.00
2018-04-19T00:31:40.064Z,0.00
2018-04-19T00:32:39.832Z,0.00
2018-04-19T00:34:36.731Z,0.00
2018-04-19T00:35:36.480Z,0.00
2018-04-19T00:37:32.601Z,0.00
2018-04-19T00:38:32.461Z,0.00
2018-04-19T00:40:29.033Z,0.00
2018-04-19T00:41:28.406Z,0.00
2018-04-19T00:43:24.555Z,0.00
2018-04-19T00:44:24.395Z,0.00
2018-04-19T00:46:20.495Z,0.00
2018-04-19T00:47:20.350Z,0.00
2018-04-19T00:49:16.442Z,0.00
2018-04-19T00:50:16.282Z,0.00
2018-04-19T00:52:12.415Z,0.00
2018-04-19T00:53:12.258Z,0.00
2018-04-19T00:55:08.404Z,0.00
2018-04-19T00:56:08.248Z,0.00
2018-04-19T00:58:04.325Z,0.00
2018-04-19T00:59:04.180Z,0.00
2018-04-19T01:00:57.991Z,0.00
2018-04-19T01:01:57.841Z,0.00
2018-04-19T01:03:54.023Z,0.00
2018-04-19T01:04:53.864Z,0.00
2018-04-19T01:06:50.245Z,0.00
2018-04-19T01:07:49.885Z,0.00
2018-04-19T01:09:46.084Z,0.00
2018-04-19T01:10:45.873Z,0.00
2018-04-19T01:12:42.054Z,0.00
2018-04-19T01:13:41.874Z,0.00
2018-04-19T01:15:38.039Z,0.00
2018-04-19T01:16:37.800Z,0.00
2018-04-19T01:18:34.075Z,0.00
2018-04-19T01:19:33.875Z,0.00
2018-04-19T01:21:30.112Z,0.00
2018-04-19T01:22:29.909Z,0.00
2018-04-19T01:24:25.293Z,0.00
2018-04-19T01:25:24.983Z,0.00
2018-04-19T01:27:21.159Z,0.00
2018-04-19T01:28:20.951Z,0.00
2018-04-19T01:30:17.173Z,0.00
2018-04-19T01:31:16.958Z,0.00
2018-04-19T01:33:13.120Z,0.00
2018-04-19T01:34:12.908Z,0.00
2018-04-19T01:36:09.036Z,0.00
2018-04-19T01:37:08.883Z,0.00
2018-04-19T01:39:05.123Z,0.00
2018-04-19T01:40:04.925Z,0.00
2018-04-19T01:42:01.123Z,0.00
2018-04-19T01:43:00.907Z,0.00
2018-04-19T01:44:57.133Z,0.00
2018-04-19T01:45:56.925Z,0.00
2018-04-19T01:47:53.068Z,0.00
2018-04-19T01:48:52.897Z,0.00
2018-04-19T01:50:49.468Z,0.00
2018-04-19T01:51:48.931Z,0.00
2018-04-19T01:53:45.143Z,0.00
2018-04-19T01:54:44.906Z,0.00
2018-04-19T01:56:42.241Z,0.00
2018-04-19T01:57:41.948Z,0.00
2018-04-19T01:59:38.020Z,0.00
2018-04-19T02:00:37.901Z,0.00
2018-04-19T02:02:34.078Z,0.00
2018-04-19T02:03:33.929Z,0.00
2018-04-19T02:05:27.477Z,0.00
2018-04-19T02:06:27.357Z,0.00
2018-04-19T02:08:24.030Z,0.00
2018-04-19T02:09:23.279Z,0.00
2018-04-19T02:11:16.941Z,0.00
2018-04-19T02:12:16.781Z,0.00
2018-04-19T02:14:13.051Z,0.00
2018-04-19T02:15:12.894Z,0.00
2018-04-19T02:17:09.131Z,0.00
2018-04-19T02:18:08.928Z,0.00
2018-04-19T02:20:05.172Z,0.00
2018-04-19T02:21:05.000Z,0.00
2018-04-19T02:23:01.108Z,0.00
2018-04-19T02:24:00.947Z,0.00
2018-04-19T02:25:57.037Z,0.00
2018-04-19T02:26:56.929Z,0.00
2018-04-19T02:28:53.133Z,0.00
2018-04-19T02:29:52.968Z,0.00
2018-04-19T02:31:49.158Z,0.00
2018-04-19T02:32:48.984Z,0.00
2018-04-19T02:34:45.745Z,0.00
2018-04-19T02:35:44.989Z,0.00
2018-04-19T02:37:41.164Z,0.00
2018-04-19T02:38:41.012Z,0.00
2018-04-19T02:40:37.101Z,0.00
2018-04-19T02:41:36.962Z,0.00
2018-04-19T02:43:34.653Z,0.00
2018-04-19T02:44:34.552Z,0.00
2018-04-19T02:46:30.563Z,0.00
2018-04-19T02:47:30.501Z,0.00
2018-04-19T02:49:26.588Z,0.00
2018-04-19T02:50:26.446Z,0.00
2018-04-19T02:52:23.539Z,0.00
2018-04-19T02:53:23.391Z,0.00
2018-04-19T02:55:19.555Z,0.00
2018-04-19T02:56:19.364Z,0.00
2018-04-19T02:58:12.975Z,0.00
2018-04-19T02:59:12.823Z,0.00
2018-04-19T03:01:08.977Z,0.00
2018-04-19T03:02:08.856Z,0.00
2018-04-19T03:04:05.463Z,0.00
2018-04-19T03:05:05.014Z,0.00
2018-04-19T03:07:02.904Z,0.00
2018-04-19T03:08:00.966Z,0.00
2018-04-19T03:09:57.130Z,0.00
2018-04-19T03:10:57.064Z,0.00
2018-04-19T03:11:56.940Z,0.00
2018-04-19T03:12:56.939Z,0.00
2018-04-19T03:13:56.897Z,0.00
2018-04-19T03:14:56.879Z,0.00
2018-04-19T03:15:56.859Z,0.00
2018-04-19T03:16:56.851Z,0.00
2018-04-19T03:17:56.814Z,0.00
2018-04-19T03:18:56.795Z,0.00
2018-04-19T03:19:57.327Z,0.00
2018-04-19T03:20:56.766Z,0.00
2018-04-19T03:21:56.733Z,0.00
2018-04-19T03:22:56.713Z,0.00
2018-04-19T03:23:56.699Z,0.00
2018-04-19T03:24:56.673Z,0.00
2018-04-19T03:25:56.652Z,0.00
2018-04-19T03:26:56.633Z,0.00
2018-04-19T03:27:56.610Z,0.00
2018-04-19T03:28:56.638Z,0.00
2018-04-19T03:29:56.573Z,0.00
2018-04-19T03:30:56.560Z,0.00
2018-04-19T03:31:56.543Z,0.00
2018-04-19T03:32:56.507Z,0.00
2018-04-19T03:33:56.493Z,0.00
2018-04-19T03:34:56.463Z,0.00
2018-04-19T03:35:56.452Z,0.00
2018-04-19T03:36:56.425Z,0.00
2018-04-19T03:37:56.449Z,0.00
2018-04-19T03:38:56.385Z,0.00
2018-04-19T03:39:56.363Z,0.00
2018-04-19T03:40:56.380Z,0.00
2018-04-19T03:41:56.320Z,0.00
2018-04-19T03:42:56.319Z,0.00
2018-04-19T03:43:56.278Z,0.00
2018-04-19T03:44:56.269Z,0.00
2018-04-19T03:45:56.241Z,0.00
2018-04-19T03:46:56.232Z,0.00
2018-04-19T03:47:56.212Z,0.00
2018-04-19T03:48:56.175Z,0.00
2018-04-19T03:49:56.156Z,0.00
2018-04-19T03:50:56.141Z,0.00
2018-04-19T03:51:56.114Z,0.00
2018-04-19T03:52:56.096Z,0.00
2018-04-19T03:53:56.082Z,4.00
2018-04-19T03:54:56.052Z,4.00
2018-04-19T03:55:56.034Z,0.00
2018-04-19T03:56:56.073Z,0.00
2018-04-19T03:57:56.001Z,4.00
2018-04-19T03:58:56.067Z,4.00
2018-04-19T03:59:56.049Z,4.00
2018-04-19T04:00:56.070Z,4.00
2018-04-19T04:01:56.051Z,4.00
2018-04-19T04:02:56.025Z,4.00
2018-04-19T04:03:56.025Z,4.00
2018-04-19T04:04:55.936Z,8.00
2018-04-19T04:05:55.822Z,8.00
2018-04-19T04:06:55.804Z,8.00
2018-04-19T04:07:55.786Z,8.00
2018-04-19T04:08:55.866Z,12.00
2018-04-19T04:10:02.381Z,12.00
2018-04-19T04:10:55.722Z,12.00
2018-04-19T04:11:55.698Z,16.00
2018-04-19T04:12:55.681Z,16.00
2018-04-19T04:13:55.664Z,16.00
2018-04-19T04:14:55.634Z,20.00
2018-04-19T04:15:55.614Z,20.00
2018-04-19T04:16:55.608Z,20.00
2018-04-19T04:17:55.579Z,24.00
2018-04-19T04:18:55.558Z,24.00
2018-04-19T04:19:55.536Z,24.00
2018-04-19T04:20:55.566Z,28.00
2018-04-19T04:21:55.489Z,28.00
2018-04-19T04:22:55.468Z,32.00
2018-04-19T04:23:55.449Z,32.00
2018-04-19T04:24:55.430Z,36.00
2018-04-19T04:25:55.411Z,40.00
2018-04-19T04:26:55.382Z,40.00
2018-04-19T04:27:55.367Z,40.00
2018-04-19T04:28:55.348Z,44.00
2018-04-19T04:29:55.325Z,48.00
2018-04-19T04:30:55.308Z,52.00
2018-04-19T04:31:55.301Z,52.00
2018-04-19T04:32:55.256Z,56.00
2018-04-19T04:33:55.239Z,60.00
2018-04-19T04:34:55.223Z,64.00
2018-04-19T04:35:55.199Z,64.00
2018-04-19T04:36:55.176Z,68.00
2018-04-19T04:37:55.159Z,68.00
2018-04-19T04:38:55.150Z,72.00
2018-04-19T04:39:55.110Z,76.00
2018-04-19T04:40:55.088Z,76.00
2018-04-19T04:41:55.075Z,80.00
2018-04-19T04:42:55.050Z,84.00
2018-04-19T04:43:55.027Z,88.00
2018-04-19T04:44:55.012Z,88.00
2018-04-19T04:45:54.985Z,88.00
2018-04-19T04:46:54.966Z,92.00
2018-04-19T04:47:54.944Z,92.00
2018-04-19T04:48:54.930Z,96.00
2018-04-19T04:49:54.900Z,96.00
2018-04-19T04:50:54.880Z,100.00
2018-04-19T04:51:54.864Z,104.00
2018-04-19T04:52:54.838Z,104.00
2018-04-19T04:53:54.821Z,104.00
2018-04-19T04:54:54.793Z,108.00
2018-04-19T04:55:54.778Z,108.00
2018-04-19T04:56:54.753Z,112.00
2018-04-19T04:57:54.760Z,112.00
2018-04-19T04:58:54.711Z,116.00
2018-04-19T04:59:54.690Z,116.00
2018-04-19T05:00:54.667Z,116.00
2018-04-19T05:01:54.645Z,124.00
2018-04-19T05:02:54.688Z,124.00
2018-04-19T05:03:54.605Z,124.00
2018-04-19T05:04:54.607Z,128.00
2018-04-19T05:05:54.568Z,132.00
2018-04-19T05:06:54.542Z,136.00
2018-04-19T05:07:54.520Z,140.00
2018-04-19T05:08:54.500Z,144.00
2018-04-19T05:09:54.482Z,148.00
2018-04-19T05:10:54.458Z,152.00
2018-04-19T05:11:54.435Z,156.00
2018-04-19T05:12:54.420Z,156.00
2018-04-19T05:13:54.401Z,160.00
2018-04-19T05:14:54.382Z,168.00
2018-04-19T05:15:54.379Z,168.00
2018-04-19T05:16:54.334Z,172.00
2018-04-19T05:17:54.310Z,172.00
2018-04-19T05:18:54.287Z,176.00
2018-04-19T05:19:54.276Z,180.00
2018-04-19T05:20:54.256Z,184.00
2018-04-19T05:21:54.225Z,188.00
2018-04-19T05:22:54.208Z,192.00
2018-04-19T05:23:54.187Z,196.00
2018-04-19T05:24:54.164Z,196.00
2018-04-19T05:25:54.141Z,200.00
2018-04-19T05:26:54.130Z,204.00
2018-04-19T05:27:54.133Z,208.00
2018-04-19T05:28:54.136Z,208.00
2018-04-19T05:29:54.137Z,212.00
2018-04-19T05:30:54.130Z,216.00
2018-04-19T05:31:54.139Z,220.00
2018-04-19T05:32:54.163Z,220.00
2018-04-19T05:33:55.740Z,224.00
2018-04-19T05:34:54.026Z,228.00
2018-04-19T05:35:54.019Z,232.00
2018-04-19T05:36:53.908Z,232.00
2018-04-19T05:37:53.888Z,236.00
2018-04-19T05:38:53.869Z,240.00
2018-04-19T05:39:53.861Z,240.00
2018-04-19T05:40:53.825Z,240.00
2018-04-19T05:41:53.809Z,244.00
2018-04-19T05:42:53.781Z,244.00
2018-04-19T05:43:53.799Z,248.00
2018-04-19T05:44:53.803Z,252.00
2018-04-19T05:45:53.726Z,256.00
2018-04-19T05:46:53.699Z,256.00
2018-04-19T05:47:53.680Z,260.00
2018-04-19T05:48:53.654Z,264.00
2018-04-19T05:49:53.633Z,264.00
2018-04-19T05:50:53.615Z,264.00
2018-04-19T05:51:53.595Z,268.00
2018-04-19T05:52:53.584Z,272.00
2018-04-19T05:53:53.549Z,276.00
2018-04-19T05:54:54.921Z,272.00
2018-04-19T05:55:53.519Z,276.00
2018-04-19T05:56:53.485Z,280.00
2018-04-19T05:57:53.469Z,284.00
2018-04-19T05:58:53.446Z,284.00
2018-04-19T05:59:53.423Z,288.00
2018-04-19T06:00:53.402Z,292.00
2018-04-19T06:01:53.381Z,296.00
2018-04-19T06:02:53.375Z,296.00
2018-04-19T06:03:53.336Z,300.00
2018-04-19T06:04:53.317Z,300.00
2018-04-19T06:05:53.312Z,304.00
2018-04-19T06:06:53.294Z,308.00
2018-04-19T06:07:53.253Z,308.00
2018-04-19T06:08:53.234Z,312.00
2018-04-19T06:09:53.211Z,316.00
2018-04-19T06:10:53.189Z,320.00
2018-04-19T06:11:53.169Z,320.00
2018-04-19T06:12:53.148Z,324.00
2018-04-19T06:13:53.146Z,328.00
2018-04-19T06:14:53.103Z,328.00
2018-04-19T06:15:53.825Z,332.00
2018-04-19T06:16:53.069Z,336.00
2018-04-19T06:17:53.041Z,340.00
2018-04-19T06:18:53.020Z,344.00
2018-04-19T06:19:53.001Z,348.00
2018-04-19T06:20:52.978Z,348.00
2018-04-19T06:21:52.957Z,352.00
2018-04-19T06:22:52.939Z,356.00
2018-04-19T06:23:52.916Z,356.00
2018-04-19T06:24:52.955Z,356.00
2018-04-19T06:25:52.877Z,364.00
2018-04-19T06:26:52.926Z,364.00
2018-04-19T06:27:52.842Z,368.00
2018-04-19T06:28:52.815Z,372.00
2018-04-19T06:29:52.790Z,372.00
2018-04-19T06:30:52.768Z,376.00
2018-04-19T06:31:52.767Z,376.00
2018-04-19T06:32:52.725Z,376.00
2018-04-19T06:33:52.727Z,380.00
2018-04-19T06:34:52.690Z,380.00
2018-04-19T06:35:52.711Z,384.00
2018-04-19T06:36:53.012Z,384.00
2018-04-19T06:37:52.626Z,388.00
2018-04-19T06:38:52.608Z,392.00
2018-04-19T06:39:52.580Z,392.00
2018-04-19T06:42:35.440Z,396.00
2018-04-19T06:43:35.360Z,396.00
2018-04-19T06:45:31.465Z,404.00
2018-04-19T06:46:31.313Z,404.00
2018-04-19T06:48:27.466Z,408.00
2018-04-19T06:49:27.287Z,412.00
2018-04-19T06:51:25.056Z,416.00
2018-04-19T06:52:23.235Z,416.00
2018-04-19T06:54:19.758Z,424.00
2018-04-19T06:55:19.179Z,424.00
2018-04-19T06:57:15.373Z,428.00
2018-04-19T06:58:15.278Z,432.00
2018-04-19T07:00:09.921Z,440.00
2018-04-19T07:01:09.750Z,444.00
2018-04-19T07:03:05.810Z,452.00
2018-04-19T07:04:05.661Z,456.00
2018-04-19T07:06:01.790Z,460.00
2018-04-19T07:07:01.606Z,468.00
2018-04-19T07:08:57.755Z,472.00
2018-04-19T07:09:57.584Z,476.00
2018-04-19T07:11:51.224Z,480.00
2018-04-19T07:12:51.081Z,488.00
2018-04-19T07:14:47.348Z,496.00
2018-04-19T07:15:47.190Z,500.00
2018-04-19T07:17:43.464Z,508.00
2018-04-19T07:18:43.275Z,512.00
2018-04-19T07:20:39.370Z,528.00
2018-04-19T07:21:39.213Z,532.00
2018-04-19T07:23:35.349Z,544.00
2018-04-19T07:24:35.198Z,548.00
2018-04-19T07:26:31.346Z,556.00
2018-04-19T07:27:31.184Z,564.00
2018-04-19T07:29:27.717Z,576.00
2018-04-19T07:30:27.427Z,584.00
2018-04-19T07:32:23.655Z,596.00
2018-04-19T07:33:23.418Z,600.00
2018-04-19T07:35:19.547Z,620.00
2018-04-19T07:36:19.389Z,628.00
2018-04-19T07:38:15.541Z,640.00
2018-04-19T07:39:15.351Z,652.00
2018-04-19T07:41:11.601Z,664.00
2018-04-19T07:42:11.335Z,672.00
2018-04-19T07:44:07.503Z,688.00
2018-04-19T07:45:07.340Z,700.00
2018-04-19T07:47:03.466Z,716.00
2018-04-19T07:48:03.313Z,728.00
2018-04-19T07:49:59.454Z,744.00
2018-04-19T07:50:59.291Z,756.00
2018-04-19T07:52:55.445Z,776.00
2018-04-19T07:53:55.273Z,784.00
2018-04-19T07:55:51.409Z,812.00
2018-04-19T07:56:51.258Z,828.00
2018-04-19T07:58:47.443Z,860.00
2018-04-19T07:59:47.225Z,872.00
2018-04-19T08:01:43.438Z,908.00
2018-04-19T08:02:43.285Z,932.00
2018-04-19T08:04:39.440Z,964.00
2018-04-19T08:05:39.829Z,980.00
2018-04-19T08:07:35.449Z,1008.00
2018-04-19T08:08:35.291Z,1024.00
2018-04-19T08:10:31.489Z,1060.00
2018-04-19T08:11:31.300Z,1072.00
2018-04-19T08:13:27.420Z,1100.00
2018-04-19T08:14:27.259Z,1112.00
2018-04-19T08:16:23.406Z,1132.00
2018-04-19T08:17:23.293Z,1148.00
2018-04-19T08:19:17.403Z,1168.00
2018-04-19T08:20:17.155Z,1176.00
2018-04-19T08:22:13.458Z,1204.00
2018-04-19T08:23:13.280Z,1220.00
2018-04-19T08:25:09.367Z,1248.00
2018-04-19T08:26:09.264Z,1268.00
2018-04-19T08:28:05.472Z,1300.00
2018-04-19T08:29:05.315Z,1320.00
2018-04-19T08:31:01.588Z,1348.00
2018-04-19T08:32:01.297Z,1372.00
2018-04-19T08:33:57.438Z,1424.00
2018-04-19T08:34:57.309Z,1456.00
2018-04-19T08:36:53.579Z,1496.00
2018-04-19T08:37:53.385Z,1520.00
2018-04-19T08:39:49.523Z,1564.00
2018-04-19T08:40:49.376Z,1584.00
2018-04-19T08:42:45.491Z,1624.00
2018-04-19T08:43:45.332Z,1640.00
2018-04-19T08:45:41.442Z,1668.00
2018-04-19T08:46:41.337Z,1680.00
2018-04-19T08:48:38.553Z,1716.00
2018-04-19T08:49:38.312Z,1728.00
2018-04-19T08:51:32.717Z,1760.00
2018-04-19T08:52:32.572Z,1784.00
2018-04-19T08:54:28.697Z,1832.00
2018-04-19T08:55:28.548Z,1856.00
2018-04-19T08:57:24.640Z,1908.00
2018-04-19T08:58:24.492Z,1944.00
2018-04-19T09:00:20.599Z,2012.00
2018-04-19T09:01:20.453Z,2048.00
2018-04-19T09:03:16.580Z,2128.00
2018-04-19T09:04:16.425Z,2164.00
2018-04-19T09:06:12.604Z,2276.00
2018-04-19T09:07:12.464Z,2348.00
2018-04-19T09:09:08.599Z,2496.00
2018-04-19T09:10:08.433Z,2560.00
2018-04-19T09:12:03.006Z,2704.00
2018-04-19T09:13:02.855Z,2804.00
2018-04-19T09:14:59.034Z,3072.00
2018-04-19T09:15:58.882Z,3248.00
2018-04-19T09:17:54.992Z,3592.00
2018-04-19T09:18:54.827Z,3764.00
2018-04-19T09:20:48.512Z,4036.00
2018-04-19T09:21:48.359Z,4168.00
2018-04-19T09:23:44.519Z,4364.00
2018-04-19T09:26:00.511Z,4588.00
2018-04-19T09:27:00.348Z,4684.00
2018-04-19T09:28:56.538Z,4872.00
2018-04-19T09:29:56.371Z,4964.00
2018-04-19T09:31:53.472Z,5128.00
2018-04-19T09:32:53.239Z,5212.00
2018-04-19T09:34:49.516Z,5344.00
2018-04-19T09:35:49.326Z,5420.00
2018-04-19T09:37:45.521Z,5164.00
2018-04-19T09:38:45.350Z,5632.00
2018-04-19T09:40:41.650Z,5724.00
2018-04-19T09:41:41.418Z,5796.00
2018-04-19T09:43:37.768Z,5836.00
2018-04-19T09:44:37.514Z,5892.00
2018-04-19T09:46:33.653Z,5580.00
2018-04-19T09:47:33.483Z,6004.00
2018-04-19T09:49:29.677Z,6068.00
2018-04-19T09:50:29.515Z,6120.00
2018-04-19T09:52:25.703Z,6172.00
2018-04-19T09:53:25.510Z,6196.00
2018-04-19T09:55:22.697Z,6252.00
2018-04-19T09:56:22.376Z,6280.00
2018-04-19T09:58:18.636Z,6292.00
2018-04-19T09:59:18.388Z,6136.00
2018-04-19T10:01:14.522Z,5944.00
2018-04-19T10:02:14.376Z,6084.00
2018-04-19T10:04:11.004Z,6400.00
2018-04-19T10:05:10.722Z,6396.00
2018-04-19T10:07:04.480Z,6332.00
2018-04-19T10:08:04.410Z,6380.00
2018-04-19T10:10:01.643Z,6092.00
2018-04-19T10:11:01.379Z,6288.00
2018-04-19T10:12:57.826Z,6368.00
2018-04-19T10:13:57.694Z,6448.00
2018-04-19T10:14:57.405Z,6400.00
2018-04-19T10:15:57.463Z,6460.00
2018-04-19T10:16:57.358Z,6288.00
2018-04-19T10:17:57.341Z,6312.00
2018-04-19T10:18:57.330Z,6488.00
2018-04-19T10:19:57.323Z,6532.00
2018-04-19T10:20:57.304Z,6516.00
2018-04-19T10:21:57.295Z,6468.00
2018-04-19T10:22:57.274Z,6516.00
2018-04-19T10:23:57.279Z,6508.00
2018-04-19T10:24:57.246Z,6420.00
2018-04-19T10:25:57.235Z,6492.00
2018-04-19T10:26:57.227Z,6400.00
2018-04-19T10:27:57.209Z,6416.00
2018-04-19T10:28:57.196Z,6492.00
2018-04-19T10:29:57.187Z,6480.00
2018-04-19T10:30:57.197Z,6504.00
2018-04-19T10:31:57.154Z,6416.00
2018-04-19T10:32:57.147Z,6296.00
2018-04-19T10:33:57.126Z,6356.00
2018-04-19T10:34:57.118Z,6476.00
2018-04-19T10:35:57.099Z,6456.00
2018-04-19T10:36:57.088Z,6484.00
2018-04-19T10:37:57.073Z,6548.00
2018-04-19T10:38:57.062Z,6548.00
2018-04-19T10:39:57.053Z,6556.00
2018-04-19T10:40:57.032Z,6448.00
2018-04-19T10:41:57.019Z,6524.00
2018-04-19T10:42:57.014Z,6528.00
2018-04-19T10:43:57.003Z,6572.00
2018-04-19T10:44:56.982Z,6560.00
2018-04-19T10:45:56.967Z,6560.00
2018-04-19T10:46:56.950Z,6616.00
2018-04-19T10:47:56.935Z,6608.00
2018-04-19T10:48:56.930Z,6612.00
2018-04-19T10:49:56.909Z,6624.00
2018-04-19T10:50:56.906Z,6680.00
2018-04-19T10:51:56.892Z,6692.00
2018-04-19T10:52:56.922Z,6756.00
2018-04-19T10:53:56.858Z,6724.00
2018-04-19T10:54:56.850Z,6900.00
2018-04-19T10:55:56.839Z,7020.00
2018-04-19T10:56:56.821Z,7108.00
2018-04-19T10:57:56.812Z,7520.00
2018-04-19T10:58:56.795Z,11780.00
2018-04-19T10:59:56.779Z,25536.00
2018-04-19T11:00:56.827Z,25120.00
2018-04-19T11:01:56.801Z,11888.00
2018-04-19T11:02:56.743Z,28064.00
2018-04-19T11:03:56.737Z,42944.00
2018-04-19T11:04:56.721Z,22144.00
2018-04-19T11:05:56.708Z,8008.00
2018-04-19T11:06:56.746Z,8212.00
2018-04-19T11:07:56.722Z,8716.00
2018-04-19T11:08:56.732Z,12820.00
2018-04-19T11:09:56.658Z,56000.00
2018-04-19T11:10:56.646Z,91616.00
2018-04-19T11:11:56.638Z,84960.00
2018-04-19T11:12:56.622Z,74688.00
2018-04-19T11:13:56.610Z,87360.00
2018-04-19T11:14:56.605Z,96384.00
2018-04-19T11:15:56.596Z,98496.00
2018-04-19T11:16:56.580Z,88736.00
2018-04-19T11:17:56.572Z,79552.00
2018-04-19T11:18:56.559Z,71584.00
2018-04-19T11:19:56.560Z,70176.00
2018-04-19T11:20:56.537Z,39776.00
2018-04-19T11:21:56.534Z,15456.00
2018-04-19T11:22:56.520Z,13168.00
2018-04-19T11:23:56.513Z,12676.00
2018-04-19T11:24:56.501Z,12360.00
2018-04-19T11:25:56.490Z,12128.00
2018-04-19T11:26:56.490Z,13080.00
2018-04-19T11:27:56.488Z,27680.00
2018-04-19T11:28:56.460Z,15328.00
2018-04-19T11:29:56.466Z,20352.00
2018-04-19T11:30:56.478Z,26272.00
2018-04-19T11:31:56.474Z,61568.00
2018-04-19T11:32:56.465Z,72640.00
2018-04-19T11:33:56.486Z,77600.00
2018-04-19T11:34:56.462Z,84160.00
2018-04-19T11:35:56.466Z,83040.00
2018-04-19T11:36:56.474Z,82912.00
2018-04-19T11:37:56.490Z,80288.00
2018-04-19T11:38:56.504Z,69376.00
2018-04-19T11:39:56.481Z,69536.00
2018-04-19T11:40:56.467Z,46496.00
2018-04-19T11:41:57.742Z,16256.00
2018-04-19T11:43:11.175Z,18464.00
2018-04-19T11:43:56.463Z,45408.00
2018-04-19T11:44:56.467Z,61920.00
2018-04-19T11:45:56.437Z,44384.00
2018-04-19T11:46:56.448Z,19680.00
2018-04-19T11:47:56.472Z,15520.00
2018-04-19T11:48:56.417Z,55040.00
2018-04-19T11:49:56.356Z,81728.00
2018-04-19T11:50:56.359Z,46304.00
2018-04-19T11:51:56.272Z,9492.00
2018-04-19T11:52:56.257Z,8312.00
2018-04-19T11:53:56.254Z,26272.00
2018-04-19T11:54:56.239Z,25664.00
2018-04-19T11:55:56.238Z,8640.00
2018-04-19T11:56:56.218Z,15284.00
2018-04-19T11:57:56.210Z,39040.00
2018-04-19T11:58:56.204Z,36032.00
2018-04-19T11:59:56.197Z,8860.00
2018-04-19T12:00:56.203Z,5668.00
2018-04-19T12:01:56.173Z,5396.00
2018-04-19T12:02:56.915Z,5368.00
2018-04-19T12:03:56.151Z,5332.00
2018-04-19T12:04:56.138Z,5088.00
2018-04-19T12:05:56.134Z,5032.00
2018-04-19T12:06:56.139Z,4576.00
2018-04-19T12:07:56.112Z,4636.00
2018-04-19T12:08:56.097Z,4808.00
2018-04-19T12:09:56.084Z,4832.00
2018-04-19T12:10:56.078Z,4780.00
2018-04-19T12:11:56.072Z,4712.00
2018-04-19T12:12:56.057Z,4724.00
2018-04-19T12:13:56.044Z,4676.00
2018-04-19T12:14:56.041Z,4676.00
2018-04-19T12:15:56.016Z,4612.00
2018-04-19T12:16:56.009Z,4616.00
2018-04-19T12:17:55.996Z,4528.00
2018-04-19T12:18:55.983Z,4488.00
2018-04-19T12:19:55.978Z,4404.00
2018-04-19T12:20:55.961Z,4388.00
2018-04-19T12:21:55.964Z,4308.00
2018-04-19T12:22:55.941Z,4248.00
2018-04-19T12:23:55.950Z,4212.00
2018-04-19T12:24:55.955Z,4144.00
2018-04-19T12:25:55.979Z,4052.00
2018-04-19T12:26:55.890Z,3948.00
2018-04-19T12:27:55.876Z,3896.00
2018-04-19T12:28:55.863Z,3776.00
2018-04-19T12:29:55.852Z,3740.00
2018-04-19T12:30:55.838Z,3688.00
2018-04-19T12:31:55.837Z,3668.00
2018-04-19T12:32:55.813Z,3668.00
2018-04-19T12:33:55.806Z,3600.00
2018-04-19T12:34:55.793Z,3528.00
2018-04-19T12:35:55.776Z,3428.00
2018-04-19T12:36:55.761Z,3360.00
2018-04-19T12:37:55.754Z,3280.00
2018-04-19T12:38:55.743Z,3180.00
2018-04-19T12:39:55.748Z,3068.00
2018-04-19T12:40:55.717Z,3016.00
2018-04-19T12:41:55.706Z,2980.00
2018-04-19T12:42:55.691Z,2944.00
2018-04-19T12:43:55.690Z,2868.00
2018-04-19T12:44:55.668Z,2760.00
2018-04-19T12:45:55.655Z,2760.00
2018-04-19T12:46:55.640Z,2728.00
2018-04-19T12:47:55.625Z,2664.00
2018-04-19T12:48:55.613Z,2604.00
2018-04-19T12:49:55.605Z,2564.00
2018-04-19T12:50:55.588Z,2504.00
2018-04-19T12:51:55.573Z,2504.00
2018-04-19T12:52:55.560Z,2428.00
2018-04-19T12:53:55.548Z,2372.00
2018-04-19T12:54:55.538Z,2364.00
2018-04-19T12:55:55.516Z,2288.00
2018-04-19T12:56:55.505Z,2240.00
2018-04-19T12:57:55.492Z,2124.00
2018-04-19T12:58:55.481Z,2144.00
2018-04-19T12:59:55.496Z,2084.00
2018-04-19T13:00:55.471Z,2000.00
2018-04-19T13:01:55.440Z,1944.00
2018-04-19T13:02:55.425Z,1900.00
2018-04-19T13:03:55.411Z,1836.00
2018-04-19T13:04:55.399Z,1752.00
2018-04-19T13:05:55.429Z,1680.00
2018-04-19T13:06:55.375Z,1620.00
2018-04-19T13:07:55.360Z,1592.00
2018-04-19T13:08:55.341Z,1532.00
2018-04-19T13:09:55.350Z,1416.00
2018-04-19T13:10:55.334Z,1388.00
2018-04-19T13:11:55.301Z,1408.00
2018-04-19T13:12:55.344Z,1328.00
2018-04-19T13:13:55.272Z,1336.00
2018-04-19T13:14:55.261Z,1320.00
2018-04-19T13:15:55.241Z,1272.00
2018-04-19T13:16:55.349Z,1248.00
2018-04-19T13:17:55.216Z,1220.00
2018-04-19T13:18:55.207Z,1216.00
2018-04-19T13:19:55.194Z,1196.00
2018-04-19T13:20:55.177Z,1188.00
2018-04-19T13:21:55.165Z,1176.00
2018-04-19T13:22:55.163Z,1196.00
2018-04-19T13:23:55.133Z,1212.00
2018-04-19T13:24:55.125Z,1220.00
2018-04-19T13:25:55.153Z,1192.00
2018-04-19T13:26:55.146Z,1216.00
2018-04-19T13:27:55.129Z,1180.00
2018-04-19T13:28:55.132Z,1196.00
2018-04-19T13:29:55.082Z,1192.00
2018-04-19T13:30:55.037Z,1104.00
2018-04-19T13:31:55.021Z,1120.00
2018-04-19T13:32:55.005Z,1108.00
2018-04-19T13:33:54.992Z,1096.00
2018-04-19T13:34:54.981Z,1092.00
2018-04-19T13:35:54.964Z,1172.00
2018-04-19T13:36:54.947Z,1152.00
2018-04-19T13:37:55.020Z,1108.00
2018-04-19T13:38:54.915Z,1124.00
2018-04-19T13:39:54.950Z,1104.00
2018-04-19T13:40:54.916Z,1096.00
2018-04-19T13:41:54.880Z,1088.00
2018-04-19T13:42:54.863Z,1084.00
2018-04-19T13:43:54.843Z,1116.00
2018-04-19T13:44:54.957Z,1112.00
2018-04-19T13:45:54.814Z,1088.00
2018-04-19T13:46:54.809Z,1072.00
2018-04-19T13:47:54.790Z,1076.00
2018-04-19T13:48:54.785Z,1028.00
2018-04-19T13:49:54.812Z,1056.00
2018-04-19T13:50:54.745Z,1052.00
2018-04-19T13:51:54.731Z,1048.00
2018-04-19T13:52:54.721Z,1044.00
2018-04-19T13:53:54.701Z,1028.00
2018-04-19T13:54:54.691Z,1004.00
2018-04-19T13:55:56.365Z,1020.00
2018-04-19T13:56:54.808Z,1024.00
2018-04-19T13:57:54.654Z,1016.00
2018-04-19T13:58:54.629Z,1036.00
2018-04-19T13:59:54.615Z,1048.00
2018-04-19T14:00:54.608Z,1056.00
2018-04-19T14:01:54.654Z,1052.00
2018-04-19T14:02:54.632Z,1056.00
2018-04-19T14:03:54.606Z,1052.00
2018-04-19T14:04:54.605Z,1044.00
2018-04-19T14:05:54.649Z,1056.00
2018-04-19T14:06:54.622Z,1056.00
2018-04-19T14:07:54.614Z,1052.00
2018-04-19T14:08:54.601Z,1040.00
2018-04-19T14:09:54.611Z,1012.00
2018-04-19T14:10:54.584Z,1036.00
2018-04-19T14:11:54.575Z,1032.00
2018-04-19T14:12:54.498Z,1032.00
2018-04-19T14:13:54.499Z,740.00
2018-04-19T14:14:54.551Z,1024.00
2018-04-19T14:15:54.391Z,1000.00
2018-04-19T14:16:55.518Z,792.00
2018-04-19T14:17:54.366Z,896.00
2018-04-19T14:18:54.338Z,892.00
2018-04-19T14:19:54.325Z,908.00
2018-04-19T14:20:54.309Z,848.00
2018-04-19T14:21:54.288Z,856.00
2018-04-19T14:22:54.282Z,876.00
2018-04-19T14:23:54.311Z,852.00
2018-04-19T14:24:54.298Z,856.00
2018-04-19T14:25:54.235Z,832.00
2018-04-19T14:26:54.219Z,824.00
2018-04-19T14:27:54.204Z,824.00
2018-04-19T14:28:54.193Z,804.00
2018-04-19T14:29:54.179Z,792.00
2018-04-19T14:30:54.162Z,772.00
2018-04-19T14:31:54.146Z,744.00
2018-04-19T14:32:54.132Z,736.00
2018-04-19T14:33:54.118Z,724.00
2018-04-19T14:34:54.101Z,728.00
2018-04-19T14:35:54.086Z,720.00
2018-04-19T14:36:54.091Z,704.00
2018-04-19T14:37:54.607Z,700.00
2018-04-19T14:38:54.046Z,692.00